Aviation Digital Data Service (ADDS)

Output produced by METARs form (2358 UTC 23 May 2022)
found at http://www.aviationweather.gov/metar/data/
 
UNAA 232330Z 00000MPS 8000 FEW007 09/08 Q1025 R02/190160 NOSIG RMK QFE746
TAF UNAA 232257Z 2400/2424 03002MPS 9999 SCT040 
     TEMPO 2403/2415 07007G12MPS
       
UOOO 232330Z 02008MPS CAVOK M00/M01 Q1008 R01/CLRD60 NOSIG RMK QFE742/0989
TAF UOOO 232248Z 2400/2424 03008G14MPS 9999 BKN016 
     BECMG 2406/2408 22003G08MPS
       
URWA 232330Z 30001MPS 9999 BKN038CB 15/11 Q1004 R27/010070 TEMPO 3000 -TSRA SCT010 BKN020CB RMK QFE754/1006
TAF URWA 232300Z 2400/2409 33003G10MPS 6000 SCT016 BKN020CB 
     TEMPO 2400/2404 35006G12MPS 
     PROB40 
     TEMPO 2400/2404 -TSRA
       
USCC 232330Z 17003MPS 9999 FEW020CB 08/08 Q1005 R09/250050 NOSIG RMK QFE733
TAF USCC 232300Z 2400/2424 16003G13MPS 6000 BKN016CB 
     TEMPO 2400/2403 22003G08MPS 0300 -SHRA FG VV003 
     TEMPO 2403/2418 18008G15MPS 3000 -TSRA 
     TEMPO 2418/2424 10003G08MPS
       
UNBB 232330Z 13003MPS CAVOK 10/01 Q1021 R24/CLRD66 NOSIG RMK QFE744
TAF UNBB 232300Z 2400/2424 05003G08MPS 9999 SCT040 
     BECMG 2403/2405 05006G13MPS 
     BECMG 2414/2415 02003G08MPS
       
UWKE 232330Z 22004MPS CAVOK 04/M00 Q1002 R21/090070 NOSIG RMK QFE735/0980
TAF UWKE 232245Z 2400/2424 23003G08MPS 9999 BKN030 
     TEMPO 2400/2409 27003G12MPS 6000 -SHRA SCT005 BKN016CB 
     TEMPO 2409/2415 -SHRA SCT020CB
       
UUOB 232330Z 26002MPS CAVOK 08/01 Q1009 R29/010070 NOSIG
TAF UUOB 232259Z 2400/2409 27003MPS 9999 SCT030
       
URMO 232330Z AUTO 27006MPS 8000 -DZ ///011/// 11/10 Q1008 RMK QFE712/0950
TAF URMO 231400Z 2315/2324 10003G08MPS 9999 BKN020 
     TEMPO 2315/2324 31006G14MPS 6000 -SHRA BKN016 BKN020CB
       
ULPB 232300Z AUTO 35006MPS 9999 // NSC 04/M05 Q1010 RMK QFE753/1004
TAF ULPB 232256Z 2400/2409 36005G10MPS 9999 SCT030
       
USPP 232330Z 13003MPS 9999 BKN049CB 05/03 Q1002 R21/290150 NOSIG RMK QFE741
TAF USPP 232259Z 2400/2424 16003G09MPS 9999 BKN020 
     TEMPO 2400/2403 -SHRA BKN016CB 
     BECMG 2404/2406 21003G13MPS 
     BECMG 2415/2416 10003G08MPS
       
UIBB 232330Z VRB01MPS 9999 NSC 10/04 Q1024 R30/60D NOSIG RMK QFE725/0966
TAF UIBB 232300Z 2400/2424 20003G08MPS 9999 SCT040CB 
     TEMPO 2403/2412 VRB08MPS
       
UUBP 232330Z AUTO 27003MPS 9999 NCD 05/M00 Q1008 RMK QFE739/0985
UWKS 232330Z 22004MPS 9999 SCT030CB 00/M00 Q1001 R24/010060 NOSIG RMK QFE736
TAF UWKS 232250Z 2400/2409 24003G10MPS 8000 -SHRASN BKN026CB TX06/2409Z
TN01/2401Z 
     TEMPO 2400/2408 BKN007CB
       
UUOO 232330Z 27003MPS CAVOK 02/02 Q1007 R30/010070 NOSIG RMK QFE742
TAF UUOO 232259Z 2400/2409 26003MPS CAVOK
       
URWW 232330Z 34003MPS CAVOK 06/03 Q1007 R06/010070 TEMPO 0500 FG OVC002
TAF URWW 232256Z 2400/2409 36003G08MPS 6000 BKN016 SCT020CB 
     TEMPO 2400/2403 33003G10MPS 
     BECMG 2403/2404 33005G12MPS 
     TEMPO 2404/2409 36003G11MPS BKN020CB
       
UHBB 232330Z 01009G14MPS 9999 FEW033 12/04 Q1006 R36/090060 TEMPO 01010G17MPS RMK QFE737/0983
TAF UHBB 232300Z 2400/2424 36007G15MPS 9999 SCT033CB 
     TEMPO 2400/2409 04007G12MPS 
     BECMG 2409/2412 01003G08MPS
       
UIII 232330Z 08002MPS 050V110 CAVOK 09/06 Q1025 R12/60D NOSIG RMK QFE726/0968
TAF UIII 232300Z 2400/2424 16005MPS CAVOK
       
UIAA 232330Z 18001MPS 9999 NSC 09/05 Q1021 R29/290160 NOSIG RMK QFE707/0943
TAF UIAA 232300Z 2400/2424 22003MPS 9999 BKN040CB 
     TEMPO 2403/2412 36005G10MPS -TSRA
       
UWKD 232330Z 25002MPS 9999 BKN029 02/00 Q1002 R29/70D NOSIG RMK QFE740/0987
TAF UWKD 232300Z 2400/2424 23003MPS 9999 BKN016 TX10/2412Z TN02/2401Z 
     TEMPO 2400/2418 2100 -SHRASN SCT005 BKN012CB 
     BECMG 2403/2405 22005G12MPS
       
UNEE 232330Z 12003MPS CAVOK 10/05 Q1023 R05/CLRD60 NOSIG RMK QFE744
TAF UNEE 232300Z 2400/2424 11003G08MPS CAVOK 
     BECMG 2403/2405 04003G08MPS 
     TEMPO 2405/2412 05007G13MPS 
     TEMPO 2418/2424 36005G10MPS
       
UHSS 232330Z 20002MPS 150V230 9999 BKN011 09/07 Q1015 R01/70D NOSIG RMK MT OBSC QFE760/1013
TAF UHSS 232300Z 2400/2506 18003MPS 9999 BKN030CB
       
UMKK 232330Z 15002MPS CAVOK 08/07 Q1011 R24/CLRD95 NOSIG RMK QFE757/1010
TAF UMKK 232252Z 2400/2424 13003MPS CAVOK 
     BECMG 2406/2408 15007G13MPS 
     BECMG 2418/2420 17003MPS BKN016
       
UHWW 232330Z 25007MPS 9999 SCT010 BKN020CB 14/12 Q1011 R25L/0///70 NOSIG RMK QFE757
TAF UHWW 232300Z 2400/2424 22003G08MPS 6000 -SHRA BKN020CB 
     TEMPO 2400/2412 VRB15MPS -TSRA BKN016CB
       
USSS 232330Z 18002MPS 9999 -SHRA SCT008 OVC025CB 08/08 Q1004 R08L/290037 NOSIG RMK QFE733/0977
TAF USSS 232255Z 2400/2424 10003MPS 6000 -SHRA BKN007 BKN020CB 
     TEMPO 2400/2403 0500 FG VV005 
     FM240500 16003G10MPS 9999 -SHRA BKN016CB 
     TEMPO 2408/2418 -TSRA 
     BECMG 2418/2420 10003G08MPS
       
UNKL 232330Z 00000MPS CAVOK 09/07 Q1025 R11/150060 NOSIG RMK QFE743
TAF UNKL 232253Z 2400/2424 07003G08MPS CAVOK
       
UUOK 232330Z AUTO 19002MPS 9999 // 04/00 Q1008 RMK QFE738/0984
TAF UUOK 231645Z 2318/2403 VRB01MPS CAVOK
       
UWWW 232330Z 31002MPS 9999 FEW033 06/M01 Q1004 R33/CLRD60 NOSIG RMK QFE742/0990
TAF UWWW 232250Z 2400/2424 29003G09MPS 9999 BKN020 TX15/2412Z TN04/2402Z 
     TEMPO 2404/2416 24006G12MPS SCT016CB 
     BECMG 2416/2418 22003G09MPS
       
USCM 232330Z 14002MPS 2000 1100N R18/1200D -SHRA BR SCT012CB 08/08 Q1005 R18/290155 TEMPO 0300 TSRA FG VV002 RMK QFE716
TAF USCM 232300Z 2400/2409 16003G10MPS 3900 -SHRA BR BKN011CB 
     TEMPO 2400/2406 22003G08MPS 0300 -SHRA FG VV003 
     FM240600 19003G13MPS 6000 -SHRA BKN016CB
       
URMM 232330Z 30004MPS 9999 -SHRA BKN061CB 12/10 Q1007 R30/290250 NOSIG RMK QFE727/0970
TAF URMM 232300Z 2400/2424 28003G08MPS 9999 BKN030 TX17/2412Z TN08/2403Z 
     TEMPO 2400/2403 6000 -SHRA BKN016 BKN030CB 
     BECMG 2403/2404 30006G13MPS 
     TEMPO 2404/2421 6000 -SHRA BKN016 BKN030CB
       
UIUU 232330Z 00000MPS 9999 NSC 11/04 Q1025 R26/60D NOSIG RMK QFE724/0966
TAF UIUU 232300Z 2400/2424 28003G08MPS 9999 NSC
       
ULMM 232330Z 13003MPS CAVOK M02/M04 Q1017 R13/090070 NOSIG RMK QFE756
TAF ULMM 232250Z 2400/2424 12003G08MPS CAVOK 
     TEMPO 2406/2418 08003G08MPS
       
URMN 232300Z 22002MPS 9999 -SHRA BKN006 BKN027CB 11/09 Q1007 R24/////// NOSIG RMK MT OBSC QFE719
TAF URMN 232300Z 2400/2409 26003G08MPS 9999 BKN020CB 
     TEMPO 2400/2406 6000 -SHRA BKN007 BKN016CB
       
USNN 232330Z 13003MPS 8000 -SHRA BKN006 BKN016CB 10/10 Q1011 R21/290258 NOSIG RMK QFE753
TAF USNN 232252Z 2400/2424 16003G10MPS 9999 BKN006 
     TEMPO 2400/2403 -SHRA BKN004 BKN016CB 
     BECMG 2403/2405 24005G13MPS BKN017 BKN025CB 
     BECMG 2413/2415 15003G08MPS
       
UHHH 232330Z 22006MPS 190V250 9999 FEW040CB 19/12 Q1003 R23R/090060 NOSIG RMK QFE746/0995
TAF UHHH 232259Z 2400/2506 23003MPS 9999 SCT020CB 
     TEMPO 2400/2402 3100 -SHRA SCT011 BKN020CB 
     FM240200 25005MPS 5000 -SHRA SCT013 BKN020CB 
     TEMPO 2402/2415 VRB10MPS 3100 -TSRA BKN011 BKN015CB
       
UWOO 232330Z 04002MPS 9999 SCT040CB 07/07 Q1003 R26/120060 NOSIG RMK QFE742/0989
TAF UWOO 232241Z 2400/2424 35003G12MPS 6000 -SHRA BKN016CB TX17/2411Z TN09/2403Z

     TEMPO 2400/2405 VRB01MPS 0300 -RA FG VV002 
     TEMPO 2405/2421 01006G12MPS
       
UWOR 232300Z 02002MPS CAVOK 09/08 Q1004 R07/CLRD65 NOSIG RMK QFE728/0971
TAF UWOR 232242Z 2400/2409 18005G10MPS 6000 BKN016CB TX23/2409Z TN10/2401Z 
     TEMPO 2400/2403 20003G10MPS 0300 -RA FG VV002 
     TEMPO 2403/2409 19010G17MPS
       
URKK 232330Z 24002MPS 9999 BKN061CB 12/12 Q1008 R23L/290060 TEMPO 1000 SHRA SCT004 BKN020CB RMK QFE753
TAF URKK 232258Z 2400/2424 27003G08MPS 9999 BKN020CB 
     TEMPO 2400/2406 1000 -SHRA BR SCT004 BKN020CB 
     PROB40 
     TEMPO 2400/2406 -TSRA 
     TEMPO 2406/2418 6000 -TSRA BKN016CB
       
UERP 232330Z 33003MPS 9000 -SHSN BKN010 BKN018CB OVC100 01/M01 Q1010 R17/290155 NOSIG RMK QFE713
TAF UERP 232300Z 2400/2424 33004G10MPS 8000 BKN015CB OVC100 
     TEMPO 2400/2404 0700 SHSN FG VV004 
     TEMPO 2404/2412 2100 -SHSNRA BR BKN007 BKN015CB OVC100
       
ULOO 232300Z 00000MPS CAVOK 05/02 Q1012 NOSIG RMK QFE754
TAF ULOO 232256Z 2400/2409 33003MPS 9999 SCT030
       
ULLI 232330Z 26003MPS CAVOK 07/02 Q1010 R28L/090060 NOSIG
TAF ULLI 232254Z 2400/2424 33003MPS 6000 SCT020
       
USTR 232330Z 16003MPS 9999 SCT007 BKN031CB 10/10 Q1006 R03/CLRD65 R30/////99 TEMPO 1000 -SHRA BR BKN004 BKN011CB
TAF USTR 232249Z 2400/2424 14005G10MPS 5000 -SHRA BR BKN007 BKN020CB 
     TEMPO 2400/2403 16003MPS 0900 -SHRA FG VV003 
     BECMG 2403/2404 20006G13MPS 9999 -SHRA 
     TEMPO 2408/2418 VRB15MPS 2100 -TSRA SQ 
     FM241800 VRB01MPS 3100 BR FEW006 SCT011
       
UUEE 232330Z 32003MPS CAVOK 08/M05 Q1004 R24L/CLRD62 R24C/CLRD62 NOSIG
TAF UUEE 232252Z 2400/2424 30005MPS 9999 SCT035 TX09/2412Z TN04/2401Z 
     TEMPO 2402/2415 29009G15MPS -SHRA BKN020CB
       
URMT 232330Z 34003MPS 9999 -RA BKN028 11/10 Q1007 R25/010070 NOSIG RMK QFE717
TAF URMT 232300Z 2400/2409 30003G08MPS 9999 SCT020CB 
     TEMPO 2400/2409 6000 -SHRA SCT016 BKN020CB
       
URSS 232330Z 03002MPS 9999 OVC090 12/10 Q1009 R02/010070 R06/010070 NOSIG RMK R06/08004MPS QFE755
TAF URSS 232255Z 2400/2424 05003G08MPS 6000 BKN008 BKN030CB OVC100 
     TEMPO 2400/2407 VRB06G11MPS 2100 -TSRA BKN005 BKN020CB OVC100 
     FM240700 17004G09MPS 9999 SCT016 BKN030CB OVC100 
     TEMPO 2407/2417 -SHRA 
     BECMG 2417/2418 05003G08MPS
       
UHMM 232330Z 33001MPS 9999 OVC017 04/01 Q1017 R10/19//60 NOSIG RMK MT OBSC QFE748 R28/33002MPS
TAF UHMM 232250Z 2400/2506 23003G10MPS 9999 BKN025CB 
     TEMPO 2410/2420 0500 FG VV003 
     FM242000 10003G08MPS 4000 -SHRASN BKN011 OVC015CB 
     TEMPO 2420/2506 2000 SHRASN BR VV011
       
UWGG 232330Z 26002MPS 9999 -RA BKN010 OVC016 02/02 Q1001 R36R/290060 NOSIG
TAF UWGG 232259Z 2400/2424 32003G09MPS 8000 BKN011 TX06/2412Z TN00/2402Z 
     TEMPO 2400/2406 3000 -SHRASN BKN005CB 
     BECMG 2406/2408 BKN020
       
USRR 232330Z 00000MPS 9999 BKN027 08/07 Q1011 R07/250060 NOSIG RMK QFE753
TAF USRR 232240Z 2400/2424 12003MPS 9999 BKN016 
     TEMPO 2400/2409 5000 -SHRA FEW007 BKN016CB
       
UUYY 232330Z 10002MPS 9999 -SHRA SCT020CB 01/01 Q1000 R36/29//51 NOSIG RMK QFE741/0989
TAF UUYY 232300Z 2400/2424 09003G08MPS 6000 -SHRASN FEW011 BKN017CB 
     TEMPO 2400/2403 VRB01MPS 0300 -SHRASN FG BKN003 BKN016CB 
     BECMG 2405/2407 10003G12MPS 
     TEMPO 2409/2415 1000 SHRASN FEW006 BKN016CB
       
ULAA 232330Z 01003MPS 340V050 9999 OVC018CB 01/M02 Q1007 R08/290060 NOSIG RMK QFE754/1006
TAF ULAA 232300Z 2400/2424 01003MPS 9999 BKN017CB 
     TEMPO 2400/2403 02003G09MPS 6000 -SHSN FEW005 BKN016CB 
     TEMPO 2403/2409 4000 -SHSNRA FEW007 BKN012CB
       
UNNT 232330Z 15001MPS CAVOK 11/05 Q1022 R25/090070 R34/////// NOSIG RMK QFE757/1009
TAF UNNT 232300Z 2400/2424 12003MPS CAVOK 
     BECMG 2405/2407 05003G08MPS 
     BECMG 2415/2418 01003G08MPS
       
UNOO 232330Z 17003MPS CAVOK 14/05 Q1016 R25/CLRD60 NOSIG RMK QFE754
TAF UNOO 232250Z 2400/2424 19003G08MPS 9999 SCT033 
     TEMPO 2321/2410 15003G10MPS BKN030CB 
     BECMG 2411/2413 VRB01MPS
       
UUDL 232330Z 29002MPS 9000 -RA BKN006 OVC018 01/00 Q1002 R23/190055 NOSIG RMK QFE743
TAF UUDL 232300Z 2400/2424 35003G08MPS 8000 BKN010 TX07/2412Z TN00/2401Z 
     TEMPO 2400/2407 3000 -SNRA OVC005 
     BECMG 2408/2410 BKN020
       
UWUU 232330Z 18001MPS 3000 BR BKN040 04/04 Q1003 R14R/0///60 TEMPO 0200 FG VV002
TAF UWUU 232253Z 2400/2424 VRB01MPS 0800 FG BKN005 TX14/2412Z TN02/2401Z 
     TEMPO 2400/2406 15003MPS 0200 -RA FG OVC003 
     FM240600 VRB01MPS 6000 BKN020 
     TEMPO 2406/2418 33003G08MPS 3100 -SHRA BKN016CB 
     TEMPO 2418/2424 01003G13MPS 2100 -SHRA SCT004 BKN010CB
       
UHMA 232330Z 28002MPS 230V320 CAVOK 15/02 Q1017 R01/60D NOSIG RMK TDZ R01/28002G03MPS END R01/25002G04MPS QFE759/1012
TAF UHMA 232248Z 2400/2424 23005MPS 9999 NSC 
     TEMPO 2400/2424 08003MPS
       
URML 232330Z 28003MPS 8000 -RA OVC047 15/14 Q1004 R32/290360 NOSIG RMK QFE753/1004
TAF URML 232300Z 2400/2409 30003G08MPS 6000 OVC020 
     TEMPO 2400/2403 27006G12MPS 3500 -RA BR FEW007 OVC017
       
URKA 232330Z 11002MPS 080V140 9999 SCT022 12/11 Q1008 R22/010070 TEMPO 0500 +SHRA SCT005 BKN016CB RMK QFE751/1002
TAF URKA 232259Z 2400/2424 24003G08MPS 6000 SCT016CB 
     TEMPO 2400/2405 0500 -SHRA FG SCT002 BKN016CB 
     TEMPO 2405/2415 30005MPS -TSRA BKN016CB
       
UUWW 232330Z 29002MPS CAVOK 07/M06 Q1004 R24/000070 NOSIG
TAF UUWW 232254Z 2400/2424 30005MPS 9999 BKN016 TX09/2412Z TN03/2402Z 
     TEMPO 2402/2407 29008G14MPS -SHRASN FEW006 SCT020CB 
     TEMPO 2407/2416 35008G16MPS -SHRA SCT020CB 
     BECMG 2416/2419 01003MPS
       
UWLW 232300Z 20002MPS CAVOK 03/00 Q1003 R02/CLRD60 NOSIG RMK QFE746/0994
TAF UWLW 232248Z 2400/2424 22003MPS 9999 BKN030 TX14/2412Z TN02/2402Z 
     TEMPO 2400/2418 27006G12MPS
       
UEEE 232330Z 00000MPS 9999 SCT050CB 10/03 Q1007 R05R/09//60 NOSIG RMK QFE746
TAF UEEE 232300Z 2400/2506 22003G08MPS 9999 BKN020CB OVC070 
     TEMPO 2400/2412 31007G12MPS 2100 -SHRA SCT007 BKN020CB OVC070
       
UHPP 232330Z 16003MPS 9999 BKN010 BKN021 08/06 Q1021 R16R/CLRD70 NOSIG RMK MT OBSC QFE762/1017
TAF UHPP 232252Z 2400/2506 18003G12MPS 9999 FEW007 BKN020CB 
     TEMPO 2409/2421 1000 BR VV003